createdAt,value
2023-03-05T00:01:32.829Z,23.57
2023-03-05T00:04:02.138Z,22.03
2023-03-05T00:06:31.252Z,26.90
2023-03-05T00:08:59.120Z,21.67
2023-03-05T00:11:30.021Z,22.30
2023-03-05T00:13:59.167Z,26.27
2023-03-05T00:16:28.582Z,23.53
2023-03-05T00:18:58.473Z,25.23
2023-03-05T00:21:34.352Z,23.63
2023-03-05T00:24:05.801Z,23.30
2023-03-05T00:26:37.578Z,23.63
2023-03-05T00:29:07.089Z,20.23
2023-03-05T00:31:36.550Z,30.67
2023-03-05T00:34:11.358Z,20.00
2023-03-05T00:36:48.885Z,22.00
2023-03-05T00:39:19.936Z,19.77
2023-03-05T00:41:47.655Z,19.20
2023-03-05T00:44:15.212Z,20.37
2023-03-05T00:46:42.966Z,22.60
2023-03-05T00:49:10.494Z,18.40
2023-03-05T00:51:38.108Z,19.03
2023-03-05T00:54:06.083Z,20.90
2023-03-05T00:56:33.782Z,20.77
2023-03-05T00:59:01.390Z,19.23
2023-03-05T01:01:29.280Z,17.50
2023-03-05T01:03:57.454Z,23.17
2023-03-05T01:06:25.470Z,17.83
2023-03-05T01:08:53.188Z,18.37
2023-03-05T01:11:20.691Z,20.47
2023-03-05T01:13:48.226Z,21.50
2023-03-05T01:16:15.817Z,17.17
2023-03-05T01:18:43.380Z,21.10
2023-03-05T01:21:11.010Z,21.10
2023-03-05T01:23:38.585Z,16.93
2023-03-05T01:26:06.583Z,21.23
2023-03-05T01:28:34.475Z,19.93
2023-03-05T01:31:02.112Z,24.37
2023-03-05T01:33:29.664Z,16.50
2023-03-05T01:35:57.277Z,23.13
2023-03-05T01:38:24.798Z,26.17
2023-03-05T01:40:52.297Z,17.13
2023-03-05T01:43:28.137Z,21.90
2023-03-05T01:46:19.577Z,18.00
2023-03-05T01:49:10.284Z,19.97
2023-03-05T01:51:54.879Z,17.40
2023-03-05T01:54:38.047Z,16.17
2023-03-05T01:57:13.283Z,20.10
2023-03-05T01:59:44.620Z,19.20
2023-03-05T02:02:13.873Z,23.60
2023-03-05T02:04:54.873Z,17.30
2023-03-05T02:07:23.877Z,18.87
2023-03-05T02:09:51.454Z,18.40
2023-03-05T02:12:19.236Z,16.87
2023-03-05T02:14:50.942Z,17.43
2023-03-05T02:17:18.471Z,20.57
2023-03-05T02:20:02.749Z,21.80
2023-03-05T02:22:30.253Z,17.05
2023-03-05T02:24:57.861Z,15.03
2023-03-05T02:27:35.077Z,22.83
2023-03-05T02:30:03.503Z,20.90
2023-03-05T02:32:30.976Z,17.70
2023-03-05T02:34:58.594Z,17.47
2023-03-05T02:37:26.117Z,20.13
2023-03-05T02:39:53.616Z,18.77
2023-03-05T02:42:21.798Z,18.30
2023-03-05T02:44:49.367Z,17.23
2023-03-05T02:47:17.177Z,19.13
2023-03-05T02:49:44.849Z,21.93
2023-03-05T02:52:12.788Z,22.50
2023-03-05T02:54:40.387Z,16.83
2023-03-05T02:57:07.867Z,18.80
2023-03-05T02:59:35.434Z,20.20
2023-03-05T03:02:03.017Z,19.07
2023-03-05T03:04:30.627Z,22.20
2023-03-05T03:06:58.191Z,20.87
2023-03-05T03:09:26.810Z,20.13
2023-03-05T03:11:54.279Z,18.87
2023-03-05T03:14:22.451Z,20.47
2023-03-05T03:16:50.381Z,17.30
2023-03-05T03:19:17.877Z,19.13
2023-03-05T03:21:45.384Z,20.03
2023-03-05T03:24:12.888Z,18.70
2023-03-05T03:26:40.385Z,20.27
2023-03-05T03:29:07.895Z,15.63
2023-03-05T03:31:35.457Z,20.70
2023-03-05T03:34:03.083Z,15.30
2023-03-05T03:36:30.676Z,19.93
2023-03-05T03:38:58.201Z,17.77
2023-03-05T03:41:25.724Z,18.13
2023-03-05T03:43:53.265Z,24.47
2023-03-05T03:46:20.879Z,18.33
2023-03-05T03:48:51.493Z,17.13
2023-03-05T03:51:19.005Z,18.93
2023-03-05T03:53:46.549Z,19.37
2023-03-05T03:56:14.057Z,22.60
2023-03-05T03:58:41.694Z,19.23
2023-03-05T04:01:09.157Z,18.10
2023-03-05T04:03:36.775Z,18.90
2023-03-05T04:06:05.215Z,16.60
2023-03-05T04:08:32.724Z,16.53
2023-03-05T04:11:02.046Z,16.27
2023-03-05T04:13:29.584Z,20.57
2023-03-05T04:15:57.140Z,17.27
2023-03-05T04:18:25.090Z,17.80
2023-03-05T04:20:52.559Z,20.77
2023-03-05T04:23:20.095Z,23.23
2023-03-05T04:25:47.592Z,17.03
2023-03-05T04:28:15.195Z,20.57
2023-03-05T04:30:42.728Z,19.93
2023-03-05T04:33:10.234Z,17.93
2023-03-05T04:35:37.768Z,17.93
2023-03-05T04:38:05.469Z,16.07
2023-03-05T04:40:33.381Z,20.83
2023-03-05T04:43:00.902Z,17.37
2023-03-05T04:45:28.441Z,18.57
2023-03-05T04:47:56.149Z,17.00
2023-03-05T04:50:24.398Z,17.80
2023-03-05T04:52:51.956Z,22.87
2023-03-05T04:55:19.548Z,18.83
2023-03-05T04:57:47.078Z,15.73
2023-03-05T05:00:17.331Z,16.30
2023-03-05T05:02:49.184Z,19.47
2023-03-05T05:05:21.644Z,19.57
2023-03-05T05:07:49.304Z,19.77
2023-03-05T05:10:17.397Z,19.77
2023-03-05T05:12:44.947Z,20.63
2023-03-05T05:15:12.920Z,17.90
2023-03-05T05:17:40.494Z,20.60
2023-03-05T05:20:11.347Z,16.20
2023-03-05T05:22:39.026Z,19.37
2023-03-05T05:25:06.836Z,22.03
2023-03-05T05:27:34.564Z,22.40
2023-03-05T05:30:04.005Z,25.37
2023-03-05T05:32:31.672Z,16.73
2023-03-05T05:34:59.883Z,23.47
2023-03-05T05:37:27.512Z,19.77
2023-03-05T05:39:55.038Z,20.93
2023-03-05T05:42:24.660Z,17.47
2023-03-05T05:44:53.676Z,23.50
2023-03-05T05:47:21.573Z,21.50
2023-03-05T05:49:49.078Z,22.50
2023-03-05T05:52:17.063Z,21.17
2023-03-05T05:54:44.553Z,22.13
2023-03-05T05:57:12.043Z,20.33
2023-03-05T05:59:40.042Z,18.00
2023-03-05T06:02:08.630Z,22.47
2023-03-05T06:04:37.830Z,19.63
2023-03-05T06:07:05.937Z,23.73
2023-03-05T06:09:36.372Z,17.97
2023-03-05T06:12:04.512Z,23.87
2023-03-05T06:14:32.222Z,22.43
2023-03-05T06:16:59.763Z,25.27
2023-03-05T06:19:27.261Z,19.90
2023-03-05T06:21:54.728Z,16.10
2023-03-05T06:24:22.359Z,22.20
2023-03-05T06:26:49.930Z,20.30
2023-03-05T06:29:17.891Z,23.63
2023-03-05T06:31:45.398Z,20.83
2023-03-05T06:34:12.981Z,23.20
2023-03-05T06:36:40.534Z,24.47
2023-03-05T06:39:08.162Z,23.20
2023-03-05T06:41:35.809Z,23.07
2023-03-05T06:44:04.027Z,20.00
2023-03-05T06:46:37.379Z,24.40
2023-03-05T06:49:05.212Z,21.25
2023-03-05T06:51:37.021Z,21.23
2023-03-05T06:54:14.649Z,19.90
2023-03-05T06:56:45.860Z,20.73
2023-03-05T06:59:16.377Z,21.33
2023-03-05T07:01:44.890Z,20.03
2023-03-05T07:04:13.346Z,21.17
2023-03-05T07:06:42.356Z,19.17
2023-03-05T07:09:16.292Z,17.53
2023-03-05T07:11:43.815Z,18.42
2023-03-05T07:14:11.361Z,22.83
2023-03-05T07:16:38.896Z,19.90
2023-03-05T07:19:07.873Z,21.77
2023-03-05T07:21:37.546Z,23.33
2023-03-05T07:24:08.335Z,28.77
2023-03-05T07:26:35.962Z,22.30
2023-03-05T07:29:04.516Z,20.73
2023-03-05T07:31:32.358Z,20.93
2023-03-05T07:34:02.239Z,19.80
2023-03-05T07:36:31.014Z,16.53
2023-03-05T07:38:58.565Z,22.50
2023-03-05T07:41:26.062Z,20.10
2023-03-05T07:43:55.019Z,18.30
2023-03-05T07:46:27.279Z,20.83
2023-03-05T07:48:55.521Z,18.17
2023-03-05T07:51:25.323Z,21.37
2023-03-05T07:53:55.439Z,19.10
2023-03-05T07:56:26.069Z,18.60
2023-03-05T07:58:53.619Z,19.40
2023-03-05T08:01:21.186Z,17.97
2023-03-05T08:03:48.704Z,22.00
2023-03-05T08:06:16.317Z,23.60
2023-03-05T08:08:44.016Z,20.87
2023-03-05T08:11:14.692Z,16.97
2023-03-05T08:13:44.465Z,18.80
2023-03-05T08:16:22.886Z,20.90
2023-03-05T08:18:50.442Z,21.80
2023-03-05T08:21:22.311Z,23.23
2023-03-05T08:23:50.084Z,24.53
2023-03-05T08:26:22.023Z,21.67
2023-03-05T08:28:50.312Z,19.57
2023-03-05T08:31:21.190Z,21.83
2023-03-05T08:33:56.291Z,22.60
2023-03-05T08:36:23.870Z,17.33
2023-03-05T08:38:51.727Z,20.90
2023-03-05T08:41:20.044Z,16.37
2023-03-05T08:43:47.720Z,26.03
2023-03-05T08:46:16.500Z,20.00
2023-03-05T08:48:44.362Z,18.90
2023-03-05T08:51:15.919Z,20.70
2023-03-05T08:53:44.919Z,15.30
2023-03-05T08:56:13.925Z,20.60
2023-03-05T08:58:42.092Z,22.00
2023-03-05T09:01:10.828Z,21.07
2023-03-05T09:03:39.202Z,18.17
2023-03-05T09:06:10.781Z,22.60
2023-03-05T09:08:39.111Z,21.87
2023-03-05T09:11:09.453Z,25.60
2023-03-05T09:13:37.165Z,19.73
2023-03-05T09:16:09.432Z,22.07
2023-03-05T09:18:37.084Z,17.60
2023-03-05T09:21:06.882Z,21.13
2023-03-05T09:23:34.581Z,19.17
2023-03-05T09:26:02.361Z,22.80
2023-03-05T09:28:29.872Z,20.93
2023-03-05T09:30:57.354Z,19.33
2023-03-05T09:33:24.846Z,21.60
2023-03-05T09:35:52.381Z,20.23
2023-03-05T09:38:21.153Z,19.77
2023-03-05T09:41:07.794Z,17.37
2023-03-05T09:44:22.373Z,20.57
2023-03-05T09:47:25.386Z,23.02
2023-03-05T09:50:33.123Z,30.70
2023-03-05T09:53:28.304Z,26.17
2023-03-05T09:56:01.365Z,16.70
2023-03-05T09:59:01.920Z,22.27
2023-03-05T10:01:39.857Z,18.07
2023-03-05T10:04:15.327Z,18.10
2023-03-05T10:07:08.938Z,18.53
2023-03-05T10:10:01.178Z,26.70
2023-03-05T10:12:43.800Z,19.80
2023-03-05T10:15:20.794Z,27.10
2023-03-05T10:17:50.840Z,20.00
2023-03-05T10:20:41.214Z,22.97
2023-03-05T10:23:08.654Z,19.70
2023-03-05T10:26:25.301Z,22.70
2023-03-05T10:29:46.527Z,23.90
2023-03-05T10:32:35.007Z,19.70
2023-03-05T10:35:26.856Z,34.40
2023-03-05T10:38:44.791Z,23.70
2023-03-05T10:41:24.041Z,22.63
2023-03-05T10:44:09.167Z,21.33
2023-03-05T10:46:38.609Z,25.93
2023-03-05T10:49:31.859Z,25.27
2023-03-05T10:52:22.063Z,25.03
2023-03-05T10:54:49.585Z,25.33
2023-03-05T10:57:25.860Z,29.80
2023-03-05T11:00:07.782Z,21.97
2023-03-05T11:03:11.177Z,24.93
2023-03-05T11:05:38.534Z,24.17
2023-03-05T11:08:34.100Z,24.03
2023-03-05T11:11:13.464Z,25.30
2023-03-05T11:14:00.186Z,23.43
2023-03-05T11:16:33.997Z,24.87
2023-03-05T11:19:24.440Z,31.27
2023-03-05T11:22:20.626Z,22.40
2023-03-05T11:25:18.986Z,22.57
2023-03-05T11:27:57.014Z,21.77
2023-03-05T11:30:34.387Z,18.60
2023-03-05T11:33:22.551Z,29.97
2023-03-05T11:35:52.629Z,23.10
2023-03-05T11:38:27.580Z,20.13
2023-03-05T11:40:57.056Z,19.73
2023-03-05T11:43:26.081Z,22.13
2023-03-05T11:46:03.585Z,24.43
2023-03-05T11:48:41.247Z,28.37
2023-03-05T11:51:25.590Z,22.00
2023-03-05T11:56:31.594Z,21.83
2023-03-05T11:59:19.003Z,22.17
2023-03-05T12:01:54.132Z,26.40
2023-03-05T12:04:23.435Z,22.80
2023-03-05T12:06:57.857Z,21.10
2023-03-05T12:09:49.398Z,19.50
2023-03-05T12:12:53.011Z,18.50
2023-03-05T12:16:03.483Z,16.97
2023-03-05T12:18:55.021Z,17.23
2023-03-05T12:21:43.396Z,16.63
2023-03-05T12:24:36.341Z,15.53
2023-03-05T12:27:03.681Z,15.77
2023-03-05T12:29:45.964Z,19.83
2023-03-05T12:32:32.219Z,20.97
2023-03-05T12:35:04.386Z,17.23
2023-03-05T12:37:31.751Z,15.90
2023-03-05T12:40:04.324Z,16.00
2023-03-05T12:42:31.717Z,19.50
2023-03-05T12:45:23.864Z,16.47
2023-03-05T12:47:57.199Z,17.27
2023-03-05T12:50:27.678Z,17.48
2023-03-05T12:53:04.312Z,17.97
2023-03-05T12:55:47.645Z,17.13
2023-03-05T12:58:46.653Z,19.73
2023-03-05T13:01:33.330Z,21.43
2023-03-05T13:04:11.069Z,20.50
2023-03-05T13:06:39.452Z,20.43
2023-03-05T13:09:25.274Z,23.20
2023-03-05T13:11:55.201Z,18.13
2023-03-05T13:14:55.748Z,19.17
2023-03-05T13:17:41.056Z,17.07
2023-03-05T13:20:36.063Z,20.90
2023-03-05T13:23:23.524Z,13.50
2023-03-05T13:26:19.391Z,14.97
2023-03-05T13:29:05.648Z,18.80
2023-03-05T13:31:45.017Z,12.47
2023-03-05T13:34:25.423Z,18.20
2023-03-05T13:37:20.850Z,20.70
2023-03-05T13:39:59.770Z,22.98
2023-03-05T13:42:34.545Z,23.47
2023-03-05T13:45:44.419Z,20.23
2023-03-05T13:48:19.932Z,25.80
2023-03-05T13:50:56.477Z,24.60
2023-03-05T13:53:33.239Z,17.17
2023-03-05T13:56:07.810Z,24.53
2023-03-05T13:58:55.870Z,21.83
2023-03-05T14:01:33.237Z,22.37
2023-03-05T14:04:07.827Z,25.67
2023-03-05T14:07:00.213Z,24.20
2023-03-05T14:09:51.911Z,19.77
2023-03-05T14:12:42.552Z,27.33
2023-03-05T14:15:28.498Z,18.67
2023-03-05T14:18:28.608Z,19.57
2023-03-05T14:21:05.657Z,20.20
2023-03-05T14:23:36.569Z,23.00
2023-03-05T14:26:30.241Z,22.63
2023-03-05T14:29:07.343Z,22.57
2023-03-05T14:32:06.288Z,23.03
2023-03-05T14:34:41.976Z,20.40
2023-03-05T14:37:25.101Z,23.90
2023-03-05T14:39:59.926Z,24.53
2023-03-05T14:42:33.324Z,29.73
2023-03-05T14:45:33.219Z,22.65
2023-03-05T14:48:03.454Z,35.90
2023-03-05T14:50:44.499Z,27.63
2023-03-05T14:53:28.346Z,50.97
2023-03-05T14:55:56.897Z,31.00
2023-03-05T14:58:29.081Z,84.53
2023-03-05T15:00:56.958Z,52.37
2023-03-05T15:03:25.792Z,33.33
2023-03-05T15:05:56.701Z,27.90
2023-03-05T15:08:28.399Z,28.57
2023-03-05T15:10:56.609Z,28.57
2023-03-05T15:13:24.515Z,24.97
2023-03-05T15:15:54.838Z,26.60
2023-03-05T15:18:22.835Z,19.60
2023-03-05T15:20:53.982Z,23.27
2023-03-05T15:23:21.518Z,24.27
2023-03-05T15:25:49.431Z,23.33
2023-03-05T15:28:17.649Z,26.13
2023-03-05T15:30:47.513Z,27.40
2023-03-05T15:33:17.396Z,25.23
2023-03-05T15:35:45.279Z,20.87
2023-03-05T15:38:12.878Z,23.97
2023-03-05T15:40:40.458Z,26.50
2023-03-05T15:43:07.943Z,23.10
2023-03-05T15:45:35.495Z,26.53
2023-03-05T15:48:03.070Z,22.10
2023-03-05T15:50:30.668Z,25.43
2023-03-05T15:52:58.687Z,27.23
2023-03-05T15:55:26.227Z,27.20
2023-03-05T15:57:54.178Z,30.53
2023-03-05T16:00:29.246Z,29.57
2023-03-05T16:02:56.807Z,23.17
2023-03-05T16:05:24.446Z,28.60
2023-03-05T16:07:53.213Z,24.50
2023-03-05T16:10:25.376Z,30.53
2023-03-05T16:13:04.036Z,27.30
2023-03-05T16:15:33.480Z,28.57
2023-03-05T16:18:06.091Z,27.93
2023-03-05T16:20:36.134Z,19.40
2023-03-05T16:23:05.695Z,24.83
2023-03-05T16:25:33.774Z,32.40
2023-03-05T16:28:01.341Z,19.97
2023-03-05T16:30:29.341Z,24.30
2023-03-05T16:32:56.870Z,26.53
2023-03-05T16:35:24.712Z,29.77
2023-03-05T16:37:52.318Z,23.33
2023-03-05T16:40:20.002Z,24.33
2023-03-05T16:42:47.529Z,28.30
2023-03-05T16:45:15.106Z,24.17
2023-03-05T16:47:42.627Z,31.57
2023-03-05T16:50:12.168Z,25.33
2023-03-05T16:52:39.745Z,25.23
2023-03-05T16:55:07.649Z,25.20
2023-03-05T16:57:35.189Z,23.83
2023-03-05T17:00:04.090Z,22.73
2023-03-05T17:02:32.143Z,25.40
2023-03-05T17:04:59.882Z,24.67
2023-03-05T17:07:27.920Z,21.97
2023-03-05T17:09:55.563Z,25.00
2023-03-05T17:12:23.276Z,22.70
2023-03-05T17:14:50.817Z,20.23
2023-03-05T17:17:18.465Z,21.37
2023-03-05T17:19:46.412Z,24.97
2023-03-05T17:22:16.019Z,25.83
2023-03-05T17:24:43.636Z,27.13
2023-03-05T17:27:12.942Z,21.23
2023-03-05T17:29:40.472Z,23.97
2023-03-05T17:32:08.301Z,25.67
2023-03-05T17:34:37.073Z,32.70
2023-03-05T17:37:05.514Z,26.53
2023-03-05T17:39:33.542Z,29.00
2023-03-05T17:42:01.577Z,28.90
2023-03-05T17:44:29.205Z,27.30
2023-03-05T17:46:56.742Z,30.47
2023-03-05T17:49:24.238Z,29.73
2023-03-05T17:51:51.752Z,27.53
2023-03-05T17:54:19.463Z,30.77
2023-03-05T17:56:48.036Z,29.60
2023-03-05T17:59:16.326Z,27.50
2023-03-05T18:01:44.015Z,33.00
2023-03-05T18:04:11.652Z,30.07
2023-03-05T18:06:39.199Z,34.40
2023-03-05T18:09:07.197Z,27.83
2023-03-05T18:11:34.800Z,29.10
2023-03-05T18:14:02.745Z,28.00
2023-03-05T18:16:30.393Z,33.77
2023-03-05T18:18:57.919Z,34.87
2023-03-05T18:21:27.892Z,32.23
2023-03-05T18:23:55.485Z,28.33
2023-03-05T18:26:23.018Z,30.07
2023-03-05T18:28:50.526Z,30.77
2023-03-05T18:31:19.189Z,31.23
2023-03-05T18:33:46.690Z,31.80
2023-03-05T18:36:14.953Z,33.20
2023-03-05T18:38:42.849Z,42.57
2023-03-05T18:41:26.444Z,42.00
2023-03-05T18:43:55.246Z,33.55
2023-03-05T18:46:22.986Z,30.43
2023-03-05T18:48:50.582Z,35.40
2023-03-05T18:51:21.546Z,30.17
2023-03-05T18:53:51.025Z,30.47
2023-03-05T18:56:18.612Z,29.20
2023-03-05T18:58:47.506Z,28.73
2023-03-05T19:01:17.474Z,38.07
2023-03-05T19:03:46.534Z,64.97
2023-03-05T19:06:14.705Z,57.30
2023-03-05T19:08:42.556Z,34.33
2023-03-05T19:11:21.324Z,29.83
2023-03-05T19:13:51.073Z,29.53
2023-03-05T19:16:26.582Z,27.63
2023-03-05T19:19:16.299Z,36.73
2023-03-05T19:21:48.148Z,24.50
2023-03-05T19:24:16.928Z,22.90
2023-03-05T19:26:44.946Z,23.77
2023-03-05T19:29:12.646Z,22.77
2023-03-05T19:31:40.864Z,23.33
2023-03-05T19:34:08.522Z,21.80
2023-03-05T19:36:36.159Z,23.60
2023-03-05T19:39:06.106Z,20.93
2023-03-05T19:41:34.037Z,25.73
2023-03-05T19:44:01.889Z,20.40
2023-03-05T19:46:29.447Z,17.83
2023-03-05T19:48:57.829Z,20.43
2023-03-05T19:51:26.863Z,24.67
2023-03-05T19:53:54.394Z,25.33
2023-03-05T19:56:21.918Z,20.33
2023-03-05T19:58:49.474Z,20.40
2023-03-05T20:01:24.243Z,19.87
2023-03-05T20:03:55.409Z,26.57
2023-03-05T20:06:24.945Z,22.80
2023-03-05T20:08:53.193Z,22.70
2023-03-05T20:11:22.249Z,21.60
2023-03-05T20:13:50.740Z,45.00
2023-03-05T20:16:27.762Z,34.23
2023-03-05T20:18:56.235Z,74.03
2023-03-05T20:21:34.361Z,28.70
2023-03-05T20:24:09.249Z,22.60
2023-03-05T20:26:39.366Z,24.93
2023-03-05T20:29:07.903Z,18.10
2023-03-05T20:31:37.186Z,21.20
2023-03-05T20:34:08.579Z,17.67
2023-03-05T20:36:36.177Z,17.00
2023-03-05T20:39:05.381Z,18.30
2023-03-05T20:41:35.811Z,18.67
2023-03-05T20:44:04.940Z,18.83
2023-03-05T20:46:36.736Z,19.10
2023-03-05T20:49:04.917Z,18.77
2023-03-05T20:51:39.256Z,20.27
2023-03-05T20:54:11.951Z,21.07
2023-03-05T20:56:39.545Z,21.93
2023-03-05T20:59:08.784Z,21.03
2023-03-05T21:01:39.022Z,20.43
2023-03-05T21:04:07.369Z,20.10
2023-03-05T21:06:35.892Z,18.97
2023-03-05T21:09:04.437Z,20.37
2023-03-05T21:11:32.246Z,19.80
2023-03-05T21:13:59.732Z,19.67
2023-03-05T21:16:28.104Z,21.47
2023-03-05T21:18:57.218Z,22.30
2023-03-05T21:21:25.016Z,18.57
2023-03-05T21:23:53.437Z,19.03
2023-03-05T21:26:21.391Z,20.13
2023-03-05T21:28:49.094Z,27.50
2023-03-05T21:31:22.305Z,23.60
2023-03-05T21:33:50.007Z,17.80
2023-03-05T21:36:18.444Z,16.17
2023-03-05T21:38:47.356Z,16.50
2023-03-05T21:41:17.914Z,15.53
2023-03-05T21:43:45.422Z,19.00
2023-03-05T21:46:13.274Z,19.47
2023-03-05T21:48:40.828Z,17.13
2023-03-05T21:51:08.943Z,15.07
2023-03-05T21:53:36.581Z,16.53
2023-03-05T21:56:18.805Z,16.73
2023-03-05T21:58:47.794Z,15.83
2023-03-05T22:01:18.344Z,12.37
2023-03-05T22:03:47.305Z,13.87
2023-03-05T22:06:16.817Z,14.10
2023-03-05T22:08:44.598Z,16.07
2023-03-05T22:11:15.273Z,13.97
2023-03-05T22:13:43.906Z,17.43
2023-03-05T22:16:11.758Z,16.23
2023-03-05T22:18:39.331Z,13.57
2023-03-05T22:21:19.914Z,16.80
2023-03-05T22:23:47.456Z,17.57
2023-03-05T22:26:15.274Z,15.63
2023-03-05T22:28:42.821Z,15.23
2023-03-05T22:31:10.602Z,19.40
2023-03-05T22:33:38.217Z,17.07
2023-03-05T22:36:11.823Z,18.33
2023-03-05T22:38:39.502Z,19.95
2023-03-05T22:41:10.524Z,17.17
2023-03-05T22:43:38.781Z,16.63
2023-03-05T22:46:15.870Z,13.73
2023-03-05T22:48:44.033Z,17.30
2023-03-05T22:51:11.973Z,16.17
2023-03-05T22:53:40.130Z,16.73
2023-03-05T22:56:14.821Z,17.13
2023-03-05T22:58:42.788Z,14.50
2023-03-05T23:01:36.524Z,17.40
2023-03-05T23:04:13.297Z,17.88
2023-03-05T23:06:41.003Z,15.07
2023-03-05T23:09:08.553Z,18.43
2023-03-05T23:11:36.084Z,19.63
2023-03-05T23:14:03.613Z,17.97
2023-03-05T23:16:31.287Z,19.57
2023-03-05T23:18:59.172Z,25.00
2023-03-05T23:21:28.114Z,26.50
2023-03-05T23:23:57.509Z,17.70
2023-03-05T23:26:25.276Z,15.23
2023-03-05T23:28:52.781Z,16.27
2023-03-05T23:31:20.413Z,16.57
2023-03-05T23:33:48.124Z,17.67
2023-03-05T23:36:19.712Z,16.67
2023-03-05T23:38:48.212Z,16.23
2023-03-05T23:41:15.678Z,22.13
2023-03-05T23:43:43.173Z,15.73
2023-03-05T23:46:11.740Z,15.77
2023-03-05T23:48:40.167Z,18.67
2023-03-05T23:51:10.138Z,19.23
2023-03-05T23:53:37.906Z,16.77
2023-03-05T23:56:11.487Z,24.67
2023-03-05T23:58:39.688Z,16.90
